This is the latest recevied weather packets stored in our database for station/object KC8JWT. If no packets are shown the sender has not sent any weather packets the latest 10 day(s).
| Time | Temp. | Humidity | Pressure | Rain* | Wind** | Luminosity | Snow |
|---|---|---|---|---|---|---|---|
| 1777573285 | 13.89° C | 81% | 1015.2 hPa | 0 mm | - | 648 W/m² | - |
| 1777572981 | 12.78° C | 80% | 1014.9 hPa | 0 mm | - | 629 W/m² | - |
| 1777572676 | 12.22° C | 79% | 1015 hPa | 0 mm | - | 337 W/m² | - |
| 1777572371 | 12.22° C | 81% | 1015.1 hPa | 0 mm | - | 339 W/m² | - |
| 1777572068 | 12.22° C | 84% | 1015.1 hPa | 0 mm | - | 355 W/m² | - |
| 1777571768 | 12.78° C | 82% | 1015.2 hPa | 0 mm | - | 342 W/m² | - |
| 1777571465 | 13.33° C | 80% | 1015 hPa | 0 mm | - | 207 W/m² | - |
| 1777571161 | 12.78° C | 85% | 1015.1 hPa | 0 mm | - | 363 W/m² | - |
| 1777570857 | 13.33° C | 83% | 1015.2 hPa | 0 mm | - | 384 W/m² | - |
| 1777570553 | 13.33° C | 81% | 1015.2 hPa | 0 mm | - | 494 W/m² | - |
| 1777570250 | 12.78° C | 79% | 1015.1 hPa | 0 mm | - | 353 W/m² | - |
| 1777569945 | 12.22° C | 81% | 1015.2 hPa | 0 mm | - | 433 W/m² | - |
| 1777569641 | 12.78° C | 79% | 1015.1 hPa | 0 mm | - | 323 W/m² | - |
| 1777569338 | 12.78° C | 79% | 1014.9 hPa | 0 mm | - | 273 W/m² | - |
| 1777569034 | 12.78° C | 81% | 1015.1 hPa | 0 mm | - | 314 W/m² | - |
| 1777568731 | 12.22° C | 81% | 1014.7 hPa | 0 mm | - | 200 W/m² | - |
| 1777568429 | 13.89° C | 79% | 1015 hPa | 0 mm | - | 113 W/m² | - |
| 1777568125 | 13.89° C | 85% | 1015 hPa | 0 mm | - | 563 W/m² | - |
| 1777567822 | 13.89° C | 83% | 1015 hPa | 0 mm | - | 421 W/m² | - |
| 1777567518 | 12.78° C | 87% | 1014.8 hPa | 0 mm | - | 1079 W/m² | - |
| 1777567216 | 11.67° C | 88% | 1015.1 hPa | 0 mm | - | 409 W/m² | - |
| 1777566914 | 11.11° C | 90% | 1015.2 hPa | 0 mm | - | 622 W/m² | - |
| 1777566611 | 11.11° C | 92% | 1015.2 hPa | 1.78 mm | - | 417 W/m² | - |
| 1777566309 | 10.56° C | 90% | 1015.2 hPa | 1.78 mm | - | 336 W/m² | - |
| 1777566006 | 11.67° C | 87% | 1015.3 hPa | 0 mm | - | 252 W/m² | - |
* Rain latest hour (hover to see other rain measurements)
** Current wind speed in m/s (hover to see current wind gust speed)